Butterfly — C6UP2 — position and weather

sailwx.info

Track history (hours):
 
Tides and Currents Weather Stations Pressure Air Temp Water Temp Dewpoint Dewpoint Depression Visibility Wind Speed Wind Dir Waves Ship Positions

Butterfly

Last reported at 2018-Apr-11 17:38 UTC. Time now 2018-May-21 01:10 UTC.
Position N 09°11' W 079°52'.
Warning: this ship's position is 39 days out of date.

; draft 10.8 m.

Type: Ship. MMSI: 311985000.

Date/timePositionNaut miles runAvg speedWind from/ knotsBaromVisibWave heightAir tempDewpointWater temp
2018-Apr-11 17:38N 09°11' W 079°52'211.8
2018-Apr-11 17:28N 09°12' W 079°54'4 7.9
2018-Apr-11 17:00N 09°15' W 079°55'1 1.9
2018-Apr-11 16:29N 09°16' W 079°55'0 0.5
2018-Apr-11 15:59N 09°17' W 079°55'0 0.4
2018-Apr-11 15:29N 09°17' W 079°55'0 0.2
2018-Apr-11 14:59N 09°17' W 079°55'1 1.0
2018-Apr-11 14:26N 09°17' W 079°55'1 1.3
2018-Apr-11 14:00N 09°18' W 079°55'3 5.3
2018-Apr-11 13:30N 09°21' W 079°55'3 6.3
2018-Apr-11 13:01N 09°24' W 079°55'2 4.7
2018-Apr-11 12:30N 09°26' W 079°55'1 2.3
2018-Apr-11 11:58N 09°26' W 079°57'0 0.0
2018-Apr-11 11:28N 09°26' W 079°57'0 0.0
2018-Apr-11 10:58N 09°26' W 079°57'0 0.0
2018-Apr-11 10:28N 09°26' W 079°57'0 0.0
2018-Apr-11 09:58N 09°26' W 079°57'0 0.0
2018-Apr-11 09:28N 09°26' W 079°57'0 0.0
2018-Apr-11 08:58N 09°26' W 079°57'0 0.0
2018-Apr-11 08:28N 09°26' W 079°57'0 0.0
2018-Apr-11 07:58N 09°26' W 079°57'0 0.0
2018-Apr-11 07:28N 09°26' W 079°57'0 0.0
2018-Apr-11 06:58N 09°26' W 079°57'0 0.0
2018-Apr-11 06:28N 09°26' W 079°57'0 0.0
2018-Apr-11 05:55N 09°26' W 079°57'0 0.0
2018-Apr-11 05:28N 09°26' W 079°57'0 0.0
2018-Apr-11 04:58N 09°26' W 079°57'0 0.0
2018-Apr-11 04:25N 09°26' W 079°57'0 0.3
2018-Apr-11 03:58N 09°26' W 079°56'0 0.8
2018-Apr-11 03:30N 09°27' W 079°56'510.0
2018-Apr-11 02:58N 09°32' W 079°54'  
2018-Apr-06 13:28N 28°26' W 093°04'713.8
2018-Apr-06 12:58N 28°31' W 093°09'713.7
2018-Apr-06 12:29N 28°36' W 093°13'1613.5
2018-Apr-06 11:20N 28°49' W 093°24'3911.9
2018-Apr-06 08:02N 29°26' W 093°40'0 7.5
2018-Apr-06 08:00N 29°26' W 093°40'5 9.3
2018-Apr-06 07:30N 29°30' W 093°42'611.6
2018-Apr-06 07:00N 29°34' W 093°46'611.4
2018-Apr-06 06:30N 29°39' W 093°50'510.8
2018-Apr-06 06:00N 29°44' W 093°52'4 8.8
2018-Apr-06 05:30N 29°47' W 093°56'4 7.8
2018-Apr-06 05:00N 29°50' W 093°57'4 7.0
2018-Apr-06 04:30N 29°53' W 093°55'3 6.9
2018-Apr-06 04:00N 29°56' W 093°52'3 5.7
2018-Apr-06 03:30N 29°59' W 093°52'3 6.0
2018-Apr-06 03:00N 29°59' W 093°56'2 4.9
2018-Apr-06 02:30N 30°01' W 093°58'3 5.2
2018-Apr-06 02:00N 30°01' W 094°01'1 2.7
2018-Apr-06 01:30N 30°02' W 094°02'0 0.0
2018-Apr-06 00:58N 30°02' W 094°02'0 0.0
2018-Apr-06 00:28N 30°02' W 094°02'0 0.0
2018-Apr-05 23:58N 30°02' W 094°02'0 0.0
2018-Apr-05 23:22N 30°02' W 094°02'0 0.0
2018-Apr-05 22:58N 30°02' W 094°02'0 0.0
2018-Apr-05 22:28N 30°02' W 094°02'0 0.0
2018-Apr-05 21:58N 30°02' W 094°02'0 0.0
2018-Apr-05 21:28N 30°02' W 094°02'0 0.0
2018-Apr-05 20:58N 30°02' W 094°02'0 0.0
2018-Apr-05 20:28N 30°02' W 094°02'0 0.0
2018-Apr-05 19:58N 30°02' W 094°02'0 0.0
2018-Apr-05 19:28N 30°02' W 094°02'0 0.0
2018-Apr-05 18:58N 30°02' W 094°02'0 0.0
2018-Apr-05 18:28N 30°02' W 094°02'0 0.0
2018-Apr-05 17:58N 30°02' W 094°02'0 0.0
2018-Apr-05 17:28N 30°02' W 094°02'0 0.0
2018-Apr-05 16:58N 30°02' W 094°02'0 0.0
2018-Apr-05 16:28N 30°02' W 094°02'0 0.0
2018-Apr-05 15:58N 30°02' W 094°02'0 0.0
2018-Apr-05 15:28N 30°02' W 094°02'0 0.0
2018-Apr-05 14:58N 30°02' W 094°02'0 0.0
2018-Apr-05 14:28N 30°02' W 094°02'0 0.0
2018-Apr-05 13:58N 30°02' W 094°02'0 0.0
2018-Apr-05 13:28N 30°02' W 094°02'0 0.0
2018-Apr-05 12:58N 30°02' W 094°02'0 0.0
2018-Apr-05 12:28N 30°02' W 094°02'0 0.0
2018-Apr-05 11:58N 30°02' W 094°02'0 0.0
2018-Apr-05 11:28N 30°02' W 094°02'0 0.0
2018-Apr-05 10:58N 30°02' W 094°02'0 0.0
2018-Apr-05 10:28N 30°02' W 094°02'0 0.0
2018-Apr-05 09:58N 30°02' W 094°02'0 0.0
2018-Apr-05 09:28N 30°02' W 094°02'0 0.0
2018-Apr-05 08:58N 30°02' W 094°02'0 0.0
2018-Apr-05 08:28N 30°02' W 094°02'0 0.0
2018-Apr-05 07:58N 30°02' W 094°02'0 0.0
2018-Apr-05 07:28N 30°02' W 094°02'0 0.0
2018-Apr-05 06:58N 30°02' W 094°02'0 0.0
2018-Apr-05 06:28N 30°02' W 094°02'0 0.0
2018-Apr-05 05:58N 30°02' W 094°02'0 0.0
2018-Apr-05 05:28N 30°02' W 094°02'0 0.0
2018-Apr-05 04:58N 30°02' W 094°02'0 0.0
2018-Apr-05 04:28N 30°02' W 094°02'0 0.0
2018-Apr-05 03:58N 30°02' W 094°02'0 0.0
2018-Apr-05 03:19N 30°02' W 094°02'0 0.0
2018-Apr-05 02:58N 30°02' W 094°02'0 0.0
2018-Apr-05 02:28N 30°02' W 094°02'0 0.0
2018-Apr-05 01:58N 30°02' W 094°02'0 0.0
2018-Apr-05 01:28N 30°02' W 094°02'0 0.0
2018-Apr-05 00:58N 30°02' W 094°02'0 0.0
2018-Apr-05 00:28N 30°02' W 094°02'0 0.0
2018-Apr-04 23:58N 30°02' W 094°02'0 0.0
2018-Apr-04 23:28N 30°02' W 094°02'0 0.0
2018-Apr-04 22:58N 30°02' W 094°02'0 0.0
2018-Apr-04 22:28N 30°02' W 094°02'0 0.0
2018-Apr-04 21:58N 30°02' W 094°02'0 0.0
2018-Apr-04 21:28N 30°02' W 094°02'0 0.0
2018-Apr-04 20:58N 30°02' W 094°02'0 0.0
2018-Apr-04 20:28N 30°02' W 094°02'0 0.0
2018-Apr-04 19:58N 30°02' W 094°02'0 0.0
2018-Apr-04 19:28N 30°02' W 094°02'0 0.0
2018-Apr-04 18:58N 30°02' W 094°02'0 0.0
2018-Apr-04 18:28N 30°02' W 094°02'0 0.0
2018-Apr-04 17:58N 30°02' W 094°02'0 0.0
2018-Apr-04 17:28N 30°02' W 094°02'0 0.0
2018-Apr-04 16:58N 30°02' W 094°02'0 0.0
2018-Apr-04 16:28N 30°02' W 094°02'0 0.0
2018-Apr-04 15:58N 30°02' W 094°02'0 0.0
2018-Apr-04 15:28N 30°02' W 094°02'0 0.0
2018-Apr-04 14:58N 30°02' W 094°02'0 0.0
2018-Apr-04 14:28N 30°02' W 094°02'0 0.0
2018-Apr-04 13:58N 30°02' W 094°02'0 0.0
2018-Apr-04 13:28N 30°02' W 094°02'0 0.0
2018-Apr-04 12:58N 30°02' W 094°02'0 0.0
2018-Apr-04 12:28N 30°02' W 094°02'0 0.0
2018-Apr-04 11:58N 30°02' W 094°02'0 0.0
2018-Apr-04 11:28N 30°02' W 094°02'0 0.0
2018-Apr-04 10:59N 30°02' W 094°02'0 0.0
2018-Apr-04 10:30N 30°02' W 094°02'0 0.0
2018-Apr-04 10:00N 30°02' W 094°02'0 0.7
2018-Apr-04 09:30N 30°02' W 094°02'2 3.9
2018-Apr-04 09:00N 30°01' W 094°00'3 5.2
2018-Apr-04 08:30N 30°00' W 093°57'3 6.8
2018-Apr-04 08:00N 29°59' W 093°54'3 5.2
2018-Apr-04 07:30N 29°57' W 093°52'3 6.8
2018-Apr-04 07:00N 29°54' W 093°54'4 8.1
2018-Apr-04 06:30N 29°51' W 093°57'3 6.6
2018-Apr-04 06:00N 29°48' W 093°57'4 8.8
2018-Apr-04 05:30N 29°45' W 093°53'3 6.6
2018-Apr-04 05:00N 29°42' W 093°51'4 8.8
2018-Apr-04 04:30N 29°38' W 093°49'4 7.5
2018-Apr-04 04:00N 29°35' W 093°47'3 5.3
2018-Apr-04 03:30N 29°35' W 093°44'0 0.4
2018-Apr-04 02:59N 29°35' W 093°44'0 0.0
2018-Apr-04 02:29N 29°35' W 093°44'0 0.0
2018-Apr-04 01:59N 29°35' W 093°44'0 0.0
2018-Apr-04 01:29N 29°35' W 093°44'0 0.0
2018-Apr-04 00:59N 29°35' W 093°44'0 0.0
2018-Apr-04 00:29N 29°35' W 093°44'0 0.0
2018-Apr-03 23:59N 29°35' W 093°44'0 0.0
2018-Apr-03 23:29N 29°35' W 093°44'0 0.0
2018-Apr-03 22:59N 29°35' W 093°44'0 0.0
2018-Apr-03 22:29N 29°35' W 093°44'0 0.0
2018-Apr-03 21:59N 29°35' W 093°44'0 0.0
2018-Apr-03 21:29N 29°35' W 093°44'0 0.0
2018-Apr-03 20:59N 29°35' W 093°44'0 0.0
2018-Apr-03 20:29N 29°35' W 093°44'0 0.0
2018-Apr-03 19:59N 29°35' W 093°44'0 0.0
2018-Apr-03 19:29N 29°35' W 093°44'0 0.0
2018-Apr-03 18:59N 29°35' W 093°44'0 0.0
2018-Apr-03 18:29N 29°35' W 093°44'0 0.0
2018-Apr-03 17:59N 29°35' W 093°44'0 0.0
2018-Apr-03 17:29N 29°35' W 093°44'0 0.0
2018-Apr-03 16:59N 29°35' W 093°44'0 0.0
2018-Apr-03 16:29N 29°35' W 093°44'0 0.0
2018-Apr-03 15:59N 29°35' W 093°44'0 0.0
2018-Apr-03 15:29N 29°35' W 093°44'0 0.0
2018-Apr-03 14:59N 29°35' W 093°44'0 0.0
2018-Apr-03 14:29N 29°35' W 093°44'0 0.0
2018-Apr-03 13:59N 29°35' W 093°44'0 0.0
2018-Apr-03 13:29N 29°35' W 093°44'0 0.0
2018-Apr-03 12:59N 29°35' W 093°44'0 0.0
2018-Apr-03 12:29N 29°35' W 093°44'0 0.0
2018-Apr-03 11:59N 29°35' W 093°44'0 0.0
2018-Apr-03 11:29N 29°35' W 093°44'0 0.0
2018-Apr-03 10:59N 29°35' W 093°44'0 0.0
2018-Apr-03 10:29N 29°35' W 093°44'0 0.0
2018-Apr-03 09:59N 29°35' W 093°44'0 0.0
2018-Apr-03 09:29N 29°35' W 093°44'0 0.0
2018-Apr-03 08:59N 29°35' W 093°44'0 0.0
2018-Apr-03 08:29N 29°35' W 093°44'0 0.0
2018-Apr-03 07:59N 29°35' W 093°44'0 0.0
2018-Apr-03 07:29N 29°35' W 093°44'0 0.0
2018-Apr-03 06:59N 29°35' W 093°44'0 0.0
2018-Apr-03 06:29N 29°35' W 093°44'0 0.0
2018-Apr-03 05:59N 29°35' W 093°44'0 0.0
2018-Apr-03 05:29N 29°35' W 093°44'0 0.1
2018-Apr-03 04:59N 29°35' W 093°44'0 0.0
2018-Apr-03 04:29N 29°35' W 093°44'0 0.1
2018-Apr-03 03:59N 29°35' W 093°44'0 0.0
2018-Apr-03 03:29N 29°35' W 093°44'0 0.0
2018-Apr-03 02:59N 29°35' W 093°44'0 0.0
2018-Apr-03 02:29N 29°35' W 093°44'0 0.0
2018-Apr-03 01:59N 29°35' W 093°44'0 0.2
2018-Apr-03 01:29N 29°35' W 093°44'2 3.7
2018-Apr-03 01:00N 29°34' W 093°42'612.7
2018-Apr-03 00:30N 29°34' W 093°35'713.8
2018-Apr-02 23:59N 29°35' W 093°26'612.7
2018-Apr-02 23:29N 29°35' W 093°19'2 1.3
2018-Apr-02 21:46N 29°36' W 093°17'  
Track history (hours):
 
Tides and Currents Weather Stations Pressure Air Temp Water Temp Dewpoint Dewpoint Depression Visibility Wind Speed Wind Dir Waves Ship Positions

Butterfly

Last reported at 2018-Apr-11 17:38 UTC. Time now 2018-May-21 01:10 UTC.
Position N 09°11' W 079°52'.
Warning: this ship's position is 39 days out of date.

; draft 10.8 m.

Type: Ship. MMSI: 311985000.

Date/timePositionNaut miles runAvg speedWind from/ knotsBaromVisibWave heightAir tempDewpointWater temp
2018-Apr-11 17:38N 09°11' W 079°52'211.8
2018-Apr-11 17:28N 09°12' W 079°54'4 7.9
2018-Apr-11 17:00N 09°15' W 079°55'1 1.9
2018-Apr-11 16:29N 09°16' W 079°55'0 0.5
2018-Apr-11 15:59N 09°17' W 079°55'0 0.4
2018-Apr-11 15:29N 09°17' W 079°55'0 0.2
2018-Apr-11 14:59N 09°17' W 079°55'1 1.0
2018-Apr-11 14:26N 09°17' W 079°55'1 1.3
2018-Apr-11 14:00N 09°18' W 079°55'3 5.3
2018-Apr-11 13:30N 09°21' W 079°55'3 6.3
2018-Apr-11 13:01N 09°24' W 079°55'2 4.7
2018-Apr-11 12:30N 09°26' W 079°55'1 2.3
2018-Apr-11 11:58N 09°26' W 079°57'0 0.0
2018-Apr-11 11:28N 09°26' W 079°57'0 0.0
2018-Apr-11 10:58N 09°26' W 079°57'0 0.0
2018-Apr-11 10:28N 09°26' W 079°57'0 0.0
2018-Apr-11 09:58N 09°26' W 079°57'0 0.0
2018-Apr-11 09:28N 09°26' W 079°57'0 0.0
2018-Apr-11 08:58N 09°26' W 079°57'0 0.0
2018-Apr-11 08:28N 09°26' W 079°57'0 0.0
2018-Apr-11 07:58N 09°26' W 079°57'0 0.0
2018-Apr-11 07:28N 09°26' W 079°57'0 0.0
2018-Apr-11 06:58N 09°26' W 079°57'0 0.0
2018-Apr-11 06:28N 09°26' W 079°57'0 0.0
2018-Apr-11 05:55N 09°26' W 079°57'0 0.0
2018-Apr-11 05:28N 09°26' W 079°57'0 0.0
2018-Apr-11 04:58N 09°26' W 079°57'0 0.0
2018-Apr-11 04:25N 09°26' W 079°57'0 0.3
2018-Apr-11 03:58N 09°26' W 079°56'0 0.8
2018-Apr-11 03:30N 09°27' W 079°56'510.0
2018-Apr-11 02:58N 09°32' W 079°54'  
2018-Apr-06 13:28N 28°26' W 093°04'713.8
2018-Apr-06 12:58N 28°31' W 093°09'713.7
2018-Apr-06 12:29N 28°36' W 093°13'1613.5
2018-Apr-06 11:20N 28°49' W 093°24'3911.9
2018-Apr-06 08:02N 29°26' W 093°40'0 7.5
2018-Apr-06 08:00N 29°26' W 093°40'5 9.3
2018-Apr-06 07:30N 29°30' W 093°42'611.6
2018-Apr-06 07:00N 29°34' W 093°46'611.4
2018-Apr-06 06:30N 29°39' W 093°50'510.8
2018-Apr-06 06:00N 29°44' W 093°52'4 8.8
2018-Apr-06 05:30N 29°47' W 093°56'4 7.8
2018-Apr-06 05:00N 29°50' W 093°57'4 7.0
2018-Apr-06 04:30N 29°53' W 093°55'3 6.9
2018-Apr-06 04:00N 29°56' W 093°52'3 5.7
2018-Apr-06 03:30N 29°59' W 093°52'3 6.0
2018-Apr-06 03:00N 29°59' W 093°56'2 4.9
2018-Apr-06 02:30N 30°01' W 093°58'3 5.2
2018-Apr-06 02:00N 30°01' W 094°01'1 2.7
2018-Apr-06 01:30N 30°02' W 094°02'0 0.0
2018-Apr-06 00:58N 30°02' W 094°02'0 0.0
2018-Apr-06 00:28N 30°02' W 094°02'0 0.0
2018-Apr-05 23:58N 30°02' W 094°02'0 0.0
2018-Apr-05 23:22N 30°02' W 094°02'0 0.0
2018-Apr-05 22:58N 30°02' W 094°02'0 0.0
2018-Apr-05 22:28N 30°02' W 094°02'0 0.0
2018-Apr-05 21:58N 30°02' W 094°02'0 0.0
2018-Apr-05 21:28N 30°02' W 094°02'0 0.0
2018-Apr-05 20:58N 30°02' W 094°02'0 0.0
2018-Apr-05 20:28N 30°02' W 094°02'0 0.0
2018-Apr-05 19:58N 30°02' W 094°02'0 0.0
2018-Apr-05 19:28N 30°02' W 094°02'0 0.0
2018-Apr-05 18:58N 30°02' W 094°02'0 0.0
2018-Apr-05 18:28N 30°02' W 094°02'0 0.0
2018-Apr-05 17:58N 30°02' W 094°02'0 0.0
2018-Apr-05 17:28N 30°02' W 094°02'0 0.0
2018-Apr-05 16:58N 30°02' W 094°02'0 0.0
2018-Apr-05 16:28N 30°02' W 094°02'0 0.0
2018-Apr-05 15:58N 30°02' W 094°02'0 0.0
2018-Apr-05 15:28N 30°02' W 094°02'0 0.0
2018-Apr-05 14:58N 30°02' W 094°02'0 0.0
2018-Apr-05 14:28N 30°02' W 094°02'0 0.0
2018-Apr-05 13:58N 30°02' W 094°02'0 0.0
2018-Apr-05 13:28N 30°02' W 094°02'0 0.0
2018-Apr-05 12:58N 30°02' W 094°02'0 0.0
2018-Apr-05 12:28N 30°02' W 094°02'0 0.0
2018-Apr-05 11:58N 30°02' W 094°02'0 0.0
2018-Apr-05 11:28N 30°02' W 094°02'0 0.0
2018-Apr-05 10:58N 30°02' W 094°02'0 0.0
2018-Apr-05 10:28N 30°02' W 094°02'0 0.0
2018-Apr-05 09:58N 30°02' W 094°02'0 0.0
2018-Apr-05 09:28N 30°02' W 094°02'0 0.0
2018-Apr-05 08:58N 30°02' W 094°02'0 0.0
2018-Apr-05 08:28N 30°02' W 094°02'0 0.0
2018-Apr-05 07:58N 30°02' W 094°02'0 0.0
2018-Apr-05 07:28N 30°02' W 094°02'0 0.0
2018-Apr-05 06:58N 30°02' W 094°02'0 0.0
2018-Apr-05 06:28N 30°02' W 094°02'0 0.0
2018-Apr-05 05:58N 30°02' W 094°02'0 0.0
2018-Apr-05 05:28N 30°02' W 094°02'0 0.0
2018-Apr-05 04:58N 30°02' W 094°02'0 0.0
2018-Apr-05 04:28N 30°02' W 094°02'0 0.0
2018-Apr-05 03:58N 30°02' W 094°02'0 0.0
2018-Apr-05 03:19N 30°02' W 094°02'0 0.0
2018-Apr-05 02:58N 30°02' W 094°02'0 0.0
2018-Apr-05 02:28N 30°02' W 094°02'0 0.0
2018-Apr-05 01:58N 30°02' W 094°02'0 0.0
2018-Apr-05 01:28N 30°02' W 094°02'0 0.0
2018-Apr-05 00:58N 30°02' W 094°02'0 0.0
2018-Apr-05 00:28N 30°02' W 094°02'0 0.0
2018-Apr-04 23:58N 30°02' W 094°02'0 0.0
2018-Apr-04 23:28N 30°02' W 094°02'0 0.0
2018-Apr-04 22:58N 30°02' W 094°02'0 0.0
2018-Apr-04 22:28N 30°02' W 094°02'0 0.0
2018-Apr-04 21:58N 30°02' W 094°02'0 0.0
2018-Apr-04 21:28N 30°02' W 094°02'0 0.0
2018-Apr-04 20:58N 30°02' W 094°02'0 0.0
2018-Apr-04 20:28N 30°02' W 094°02'0 0.0
2018-Apr-04 19:58N 30°02' W 094°02'0 0.0
2018-Apr-04 19:28N 30°02' W 094°02'0 0.0
2018-Apr-04 18:58N 30°02' W 094°02'0 0.0
2018-Apr-04 18:28N 30°02' W 094°02'0 0.0
2018-Apr-04 17:58N 30°02' W 094°02'0 0.0
2018-Apr-04 17:28N 30°02' W 094°02'0 0.0
2018-Apr-04 16:58N 30°02' W 094°02'0 0.0
2018-Apr-04 16:28N 30°02' W 094°02'0 0.0
2018-Apr-04 15:58N 30°02' W 094°02'0 0.0
2018-Apr-04 15:28N 30°02' W 094°02'0 0.0
2018-Apr-04 14:58N 30°02' W 094°02'0 0.0
2018-Apr-04 14:28N 30°02' W 094°02'0 0.0
2018-Apr-04 13:58N 30°02' W 094°02'0 0.0
2018-Apr-04 13:28N 30°02' W 094°02'0 0.0
2018-Apr-04 12:58N 30°02' W 094°02'0 0.0
2018-Apr-04 12:28N 30°02' W 094°02'0 0.0
2018-Apr-04 11:58N 30°02' W 094°02'0 0.0
2018-Apr-04 11:28N 30°02' W 094°02'0 0.0
2018-Apr-04 10:59N 30°02' W 094°02'0 0.0
2018-Apr-04 10:30N 30°02' W 094°02'0 0.0
2018-Apr-04 10:00N 30°02' W 094°02'0 0.7
2018-Apr-04 09:30N 30°02' W 094°02'2 3.9
2018-Apr-04 09:00N 30°01' W 094°00'3 5.2
2018-Apr-04 08:30N 30°00' W 093°57'3 6.8
2018-Apr-04 08:00N 29°59' W 093°54'3 5.2
2018-Apr-04 07:30N 29°57' W 093°52'3 6.8
2018-Apr-04 07:00N 29°54' W 093°54'4 8.1
2018-Apr-04 06:30N 29°51' W 093°57'3 6.6
2018-Apr-04 06:00N 29°48' W 093°57'4 8.8
2018-Apr-04 05:30N 29°45' W 093°53'3 6.6
2018-Apr-04 05:00N 29°42' W 093°51'4 8.8
2018-Apr-04 04:30N 29°38' W 093°49'4 7.5
2018-Apr-04 04:00N 29°35' W 093°47'3 5.3
2018-Apr-04 03:30N 29°35' W 093°44'0 0.4
2018-Apr-04 02:59N 29°35' W 093°44'0 0.0
2018-Apr-04 02:29N 29°35' W 093°44'0 0.0
2018-Apr-04 01:59N 29°35' W 093°44'0 0.0
2018-Apr-04 01:29N 29°35' W 093°44'0 0.0
2018-Apr-04 00:59N 29°35' W 093°44'0 0.0
2018-Apr-04 00:29N 29°35' W 093°44'0 0.0
2018-Apr-03 23:59N 29°35' W 093°44'0 0.0
2018-Apr-03 23:29N 29°35' W 093°44'0 0.0
2018-Apr-03 22:59N 29°35' W 093°44'0 0.0
2018-Apr-03 22:29N 29°35' W 093°44'0 0.0
2018-Apr-03 21:59N 29°35' W 093°44'0 0.0
2018-Apr-03 21:29N 29°35' W 093°44'0 0.0
2018-Apr-03 20:59N 29°35' W 093°44'0 0.0
2018-Apr-03 20:29N 29°35' W 093°44'0 0.0
2018-Apr-03 19:59N 29°35' W 093°44'0 0.0
2018-Apr-03 19:29N 29°35' W 093°44'0 0.0
2018-Apr-03 18:59N 29°35' W 093°44'0 0.0
2018-Apr-03 18:29N 29°35' W 093°44'0 0.0
2018-Apr-03 17:59N 29°35' W 093°44'0 0.0
2018-Apr-03 17:29N 29°35' W 093°44'0 0.0
2018-Apr-03 16:59N 29°35' W 093°44'0 0.0
2018-Apr-03 16:29N 29°35' W 093°44'0 0.0
2018-Apr-03 15:59N 29°35' W 093°44'0 0.0
2018-Apr-03 15:29N 29°35' W 093°44'0 0.0
2018-Apr-03 14:59N 29°35' W 093°44'0 0.0
2018-Apr-03 14:29N 29°35' W 093°44'0 0.0
2018-Apr-03 13:59N 29°35' W 093°44'0 0.0
2018-Apr-03 13:29N 29°35' W 093°44'0 0.0
2018-Apr-03 12:59N 29°35' W 093°44'0 0.0
2018-Apr-03 12:29N 29°35' W 093°44'0 0.0
2018-Apr-03 11:59N 29°35' W 093°44'0 0.0
2018-Apr-03 11:29N 29°35' W 093°44'0 0.0
2018-Apr-03 10:59N 29°35' W 093°44'0 0.0
2018-Apr-03 10:29N 29°35' W 093°44'0 0.0
2018-Apr-03 09:59N 29°35' W 093°44'0 0.0
2018-Apr-03 09:29N 29°35' W 093°44'0 0.0
2018-Apr-03 08:59N 29°35' W 093°44'0 0.0
2018-Apr-03 08:29N 29°35' W 093°44'0 0.0
2018-Apr-03 07:59N 29°35' W 093°44'0 0.0
2018-Apr-03 07:29N 29°35' W 093°44'0 0.0
2018-Apr-03 06:59N 29°35' W 093°44'0 0.0
2018-Apr-03 06:29N 29°35' W 093°44'0 0.0
2018-Apr-03 05:59N 29°35' W 093°44'0 0.0
2018-Apr-03 05:29N 29°35' W 093°44'0 0.1
2018-Apr-03 04:59N 29°35' W 093°44'0 0.0
2018-Apr-03 04:29N 29°35' W 093°44'0 0.1
2018-Apr-03 03:59N 29°35' W 093°44'0 0.0
2018-Apr-03 03:29N 29°35' W 093°44'0 0.0
2018-Apr-03 02:59N 29°35' W 093°44'0 0.0
2018-Apr-03 02:29N 29°35' W 093°44'0 0.0
2018-Apr-03 01:59N 29°35' W 093°44'0 0.2
2018-Apr-03 01:29N 29°35' W 093°44'2 3.7
2018-Apr-03 01:00N 29°34' W 093°42'612.7
2018-Apr-03 00:30N 29°34' W 093°35'713.8
2018-Apr-02 23:59N 29°35' W 093°26'612.7
2018-Apr-02 23:29N 29°35' W 093°19'2 1.3
2018-Apr-02 21:46N 29°36' W 093°17'  

Dump ship's entire track history